KMKO/MKO METAR and TAF weather

Enter ICAO airport designator
Station Type Date Time Source
KMKO METAR 2022/12/05 12:53 UTC NOAA

KMKO 051253Z AUTO 15006KT 7SM OVC005 06/05 A2989 RMK AO2 SLP122 T00610050


Station Type Date Time Source
KMKO Decoded METAR 2022/12/05 12:53 UTC NOAA

MUSKOGEE DAVIS FIELD, OK, United States (KMKO) 35-39N 95-22W 185M
Dec 05, 2022 - 07:53 AM EST / 2022.12.05 1253 UTC
Wind: from the SSE (150 degrees) at 7 MPH (6 KT):0
Visibility: 7 mile(s):0
Sky conditions: overcast
Temperature: 43.0 F (6.1 C)
Dew Point: 41.0 F (5.0 C)
Relative Humidity: 92%
Pressure (altimeter): 29.89 in. Hg (1012 hPa)
ob: KMKO 051253Z AUTO 15006KT 7SM OVC005 06/05 A2989 RMK AO2 SLP122 T00610050
cycle: 13

Station Type Date Time Source
KMKO TAF UTC NOAA

Error!

Example: see airport list